createdAt,value
2018-06-18T00:00:26.696Z,22.61
2018-06-18T00:01:07.236Z,22.6
2018-06-18T00:01:47.801Z,22.68
2018-06-18T00:02:28.322Z,22.64
2018-06-18T00:03:08.858Z,22.67
2018-06-18T00:03:49.392Z,22.58
2018-06-18T00:04:29.909Z,22.72
2018-06-18T00:05:10.428Z,22.57
2018-06-18T00:05:51.078Z,22.64
2018-06-18T00:06:31.589Z,22.55
2018-06-18T00:07:12.107Z,22.46
2018-06-18T00:07:52.639Z,22.47
2018-06-18T00:08:33.149Z,22.31
2018-06-18T00:09:13.658Z,22.28
2018-06-18T00:09:54.180Z,22.18
2018-06-18T00:10:34.707Z,22.17
2018-06-18T00:11:15.237Z,22.33
2018-06-18T00:11:55.773Z,22.31
2018-06-18T00:12:36.301Z,22.35
2018-06-18T00:13:16.824Z,22.36
2018-06-18T00:13:57.340Z,22.33
2018-06-18T00:14:37.868Z,22.37
2018-06-18T00:15:18.391Z,22.42
2018-06-18T00:15:58.913Z,22.39
2018-06-18T00:16:39.446Z,22.39
2018-06-18T00:17:19.981Z,22.43
2018-06-18T00:18:00.516Z,22.4
2018-06-18T00:18:41.028Z,22.39
2018-06-18T00:19:22.124Z,22.36
2018-06-18T00:20:02.176Z,22.47
2018-06-18T00:20:42.664Z,22.46
2018-06-18T00:21:23.156Z,22.49
2018-06-18T00:22:03.676Z,22.57
2018-06-18T00:22:44.180Z,22.54
2018-06-18T00:23:24.706Z,22.45
2018-06-18T00:24:05.225Z,22.33
2018-06-18T00:24:45.747Z,22.3
2018-06-18T00:25:26.273Z,22.35
2018-06-18T00:26:06.813Z,22.35
2018-06-18T00:26:47.321Z,22.52
2018-06-18T00:27:27.838Z,22.36
2018-06-18T00:28:08.388Z,22.42
2018-06-18T00:28:48.909Z,22.31
2018-06-18T00:29:29.440Z,22.35
2018-06-18T00:30:10.013Z,22.25
2018-06-18T00:30:50.481Z,22.28
2018-06-18T00:31:31.014Z,22.33
2018-06-18T00:32:11.547Z,22.36
2018-06-18T00:32:52.081Z,22.31
2018-06-18T00:33:32.600Z,22.36
2018-06-18T00:34:13.127Z,22.24
2018-06-18T00:34:53.636Z,22.33
2018-06-18T00:35:34.168Z,22.3
2018-06-18T00:36:14.661Z,22.17
2018-06-18T00:36:55.173Z,22.2
2018-06-18T00:37:35.705Z,22.14
2018-06-18T00:38:16.231Z,22.17
2018-06-18T00:38:56.765Z,22.18
2018-06-18T00:39:37.301Z,22.22
2018-06-18T00:40:17.832Z,22.21
2018-06-18T00:40:58.360Z,22.17
2018-06-18T00:41:38.889Z,22.14
2018-06-18T00:42:19.413Z,22.2
2018-06-18T00:42:59.948Z,22.1
2018-06-18T00:43:40.479Z,22.14
2018-06-18T00:44:20.995Z,22.09
2018-06-18T00:45:01.516Z,22.12
2018-06-18T00:45:42.054Z,22.14
2018-06-18T00:46:22.582Z,22.15
2018-06-18T00:47:03.101Z,22.1
2018-06-18T00:47:43.626Z,22.14
2018-06-18T00:48:24.141Z,22.1
2018-06-18T00:49:04.653Z,22.18
2018-06-18T00:49:45.179Z,22.06
2018-06-18T00:50:25.707Z,22.05
2018-06-18T00:51:06.232Z,22.06
2018-06-18T00:51:46.752Z,22.03
2018-06-18T00:52:27.282Z,22.12
2018-06-18T00:53:07.873Z,22
2018-06-18T00:53:48.345Z,22.09
2018-06-18T00:54:28.874Z,22.15
2018-06-18T00:55:09.402Z,22.18
2018-06-18T00:55:49.921Z,22.15
2018-06-18T00:56:30.447Z,22.22
2018-06-18T00:57:10.971Z,22.09
2018-06-18T00:57:51.491Z,22.1
2018-06-18T00:58:32.010Z,22.12
2018-06-18T00:59:12.541Z,22.22
2018-06-18T00:59:53.072Z,22.2
2018-06-18T01:00:33.592Z,22.28
2018-06-18T01:01:14.125Z,22.22
2018-06-18T01:01:54.659Z,22.3
2018-06-18T01:02:35.170Z,22.33
2018-06-18T01:03:15.689Z,22.27
2018-06-18T01:03:56.228Z,22.12
2018-06-18T01:04:36.752Z,22.22
2018-06-18T01:05:17.272Z,22.12
2018-06-18T01:05:57.800Z,22.18
2018-06-18T01:06:38.310Z,22.02
2018-06-18T01:07:18.846Z,22.05
2018-06-18T01:07:59.374Z,21.92
2018-06-18T01:08:39.903Z,22.02
2018-06-18T01:09:20.421Z,22.05
2018-06-18T01:10:00.956Z,22.06
2018-06-18T01:10:41.469Z,22.07
2018-06-18T01:11:22.006Z,22.07
2018-06-18T01:12:02.501Z,22.06
2018-06-18T01:12:43.023Z,22.14
2018-06-18T01:13:23.549Z,22.2
2018-06-18T01:14:04.071Z,22.2
2018-06-18T01:14:44.592Z,22.18
2018-06-18T01:15:25.107Z,22.2
2018-06-18T01:16:05.648Z,22.22
2018-06-18T01:16:46.166Z,22.17
2018-06-18T01:17:26.687Z,22.2
2018-06-18T01:18:07.222Z,22.12
2018-06-18T01:18:47.741Z,22.18
2018-06-18T01:19:28.265Z,22.17
2018-06-18T01:20:08.798Z,22.1
2018-06-18T01:20:49.332Z,22.21
2018-06-18T01:21:29.852Z,22.2
2018-06-18T01:23:28.011Z,22.15
2018-06-18T01:24:08.526Z,22.24
2018-06-18T01:24:49.063Z,22.15
2018-06-18T01:25:29.574Z,22.2
2018-06-18T01:26:10.090Z,22.21
2018-06-18T01:26:50.610Z,22.15
2018-06-18T01:27:31.141Z,22.17
2018-06-18T01:28:11.658Z,22.14
2018-06-18T01:28:52.180Z,22.22
2018-06-18T01:29:32.690Z,22.18
2018-06-18T01:30:13.206Z,22.21
2018-06-18T01:30:53.729Z,22.18
2018-06-18T01:31:34.255Z,22.24
2018-06-18T01:32:14.781Z,22.12
2018-06-18T01:32:55.442Z,22.14
2018-06-18T01:33:35.996Z,22.15
2018-06-18T01:34:16.511Z,22.1
2018-06-18T01:34:57.027Z,22.14
2018-06-18T01:35:37.537Z,22.07
2018-06-18T01:36:18.059Z,22.12
2018-06-18T01:36:58.580Z,22.12
2018-06-18T01:37:39.090Z,22.15
2018-06-18T01:38:19.608Z,22
2018-06-18T01:39:00.143Z,22.15
2018-06-18T01:39:40.656Z,22.15
2018-06-18T01:40:21.178Z,22.14
2018-06-18T01:41:01.703Z,22.14
2018-06-18T01:41:42.222Z,22.18
2018-06-18T01:42:22.721Z,22.09
2018-06-18T01:43:03.251Z,22.1
2018-06-18T01:43:43.804Z,22.1
2018-06-18T01:44:24.301Z,22
2018-06-18T01:45:04.835Z,22.05
2018-06-18T01:45:45.352Z,22.05
2018-06-18T01:46:25.870Z,22.03
2018-06-18T01:47:06.389Z,22.12
2018-06-18T01:47:46.905Z,22.05
2018-06-18T01:48:27.438Z,22.03
2018-06-18T01:49:07.954Z,22.09
2018-06-18T01:49:48.484Z,22.06
2018-06-18T01:50:29.006Z,22
2018-06-18T01:51:09.522Z,22.05
2018-06-18T01:51:50.041Z,22.03
2018-06-18T01:52:30.563Z,21.94
2018-06-18T01:53:11.089Z,21.96
2018-06-18T01:53:51.619Z,22
2018-06-18T01:54:32.151Z,21.92
2018-06-18T01:55:12.670Z,21.92
2018-06-18T01:55:53.200Z,21.94
2018-06-18T01:56:33.707Z,21.98
2018-06-18T01:57:14.228Z,21.91
2018-06-18T01:57:54.766Z,21.96
2018-06-18T01:58:35.285Z,21.98
2018-06-18T01:59:15.802Z,21.96
2018-06-18T01:59:56.321Z,21.92
2018-06-18T02:00:36.833Z,21.94
2018-06-18T02:01:17.410Z,21.94
2018-06-18T02:01:57.901Z,21.94
2018-06-18T02:02:38.425Z,21.96
2018-06-18T02:03:18.946Z,21.98
2018-06-18T02:03:59.469Z,21.98
2018-06-18T02:04:39.991Z,21.91
2018-06-18T02:05:20.512Z,21.9
2018-06-18T02:06:01.046Z,21.98
2018-06-18T02:06:41.559Z,21.74
2018-06-18T02:07:22.084Z,21.83
2018-06-18T02:08:02.615Z,21.8
2018-06-18T02:08:43.126Z,21.84
2018-06-18T02:09:23.649Z,21.9
2018-06-18T02:10:04.177Z,21.84
2018-06-18T02:10:44.669Z,21.92
2018-06-18T02:11:25.199Z,21.83
2018-06-18T02:12:05.702Z,21.75
2018-06-18T02:12:46.219Z,21.75
2018-06-18T02:13:26.750Z,21.79
2018-06-18T02:14:07.253Z,21.91
2018-06-18T02:14:47.793Z,21.86
2018-06-18T02:15:28.332Z,21.99
2018-06-18T02:16:08.869Z,21.99
2018-06-18T02:16:49.352Z,21.91
2018-06-18T02:17:29.879Z,21.99
2018-06-18T02:18:10.390Z,21.99
2018-06-18T02:18:50.925Z,21.91
2018-06-18T02:19:31.433Z,22.02
2018-06-18T02:20:11.953Z,21.92
2018-06-18T02:20:52.506Z,21.98
2018-06-18T02:21:33.030Z,21.91
2018-06-18T02:22:13.558Z,21.96
2018-06-18T02:22:54.073Z,21.84
2018-06-18T02:23:34.597Z,21.88
2018-06-18T02:24:15.128Z,21.86
2018-06-18T02:24:55.655Z,21.83
2018-06-18T02:25:36.177Z,21.88
2018-06-18T02:26:16.708Z,21.77
2018-06-18T02:26:57.248Z,21.84
2018-06-18T02:27:37.773Z,21.83
2018-06-18T02:28:18.304Z,21.84
2018-06-18T02:28:58.824Z,21.72
2018-06-18T02:29:39.351Z,21.77
2018-06-18T02:30:19.861Z,21.82
2018-06-18T02:31:00.369Z,21.84
2018-06-18T02:31:40.890Z,21.82
2018-06-18T02:32:21.402Z,21.91
2018-06-18T02:33:01.913Z,21.84
2018-06-18T02:33:42.436Z,21.91
2018-06-18T02:34:22.955Z,21.91
2018-06-18T02:35:03.486Z,21.96
2018-06-18T02:35:44.053Z,21.82
2018-06-18T02:36:24.524Z,22
2018-06-18T02:37:05.048Z,21.94
2018-06-18T02:37:45.571Z,21.91
2018-06-18T02:38:26.087Z,22.02
2018-06-18T02:39:06.605Z,21.98
2018-06-18T02:39:47.120Z,21.94
2018-06-18T02:40:27.640Z,21.99
2018-06-18T02:41:08.149Z,21.94
2018-06-18T02:41:48.672Z,21.94
2018-06-18T02:42:29.190Z,21.98
2018-06-18T02:43:09.700Z,21.98
2018-06-18T02:43:50.210Z,21.99
2018-06-18T02:44:30.733Z,21.99
2018-06-18T02:45:11.255Z,21.92
2018-06-18T02:45:51.784Z,21.94
2018-06-18T02:46:32.307Z,21.77
2018-06-18T02:47:12.828Z,21.88
2018-06-18T02:47:53.337Z,21.94
2018-06-18T02:48:33.852Z,21.92
2018-06-18T02:49:14.370Z,22.02
2018-06-18T02:49:54.897Z,21.91
2018-06-18T02:50:35.417Z,21.92
2018-06-18T02:51:15.989Z,21.92
2018-06-18T02:51:56.510Z,21.79
2018-06-18T02:52:37.020Z,21.88
2018-06-18T02:53:17.534Z,21.82
2018-06-18T02:53:58.050Z,21.98
2018-06-18T02:54:38.583Z,21.82
2018-06-18T02:55:19.091Z,21.8
2018-06-18T02:55:59.608Z,21.77
2018-06-18T02:56:40.141Z,21.94
2018-06-18T02:57:20.655Z,22.02
2018-06-18T02:58:01.178Z,21.96
2018-06-18T02:58:41.705Z,21.91
2018-06-18T02:59:22.224Z,21.8
2018-06-18T03:00:02.747Z,21.91
2018-06-18T03:00:43.272Z,21.8
2018-06-18T03:01:23.795Z,21.74
2018-06-18T03:02:04.319Z,21.69
2018-06-18T03:02:44.840Z,21.82
2018-06-18T03:03:25.363Z,21.84
2018-06-18T03:04:05.884Z,21.75
2018-06-18T03:04:46.405Z,21.69
2018-06-18T03:05:26.927Z,21.67
2018-06-18T03:06:07.444Z,21.65
2018-06-18T03:06:48.052Z,21.74
2018-06-18T03:07:28.577Z,21.75
2018-06-18T03:08:09.095Z,21.75
2018-06-18T03:08:49.617Z,21.77
2018-06-18T03:09:30.130Z,21.71
2018-06-18T03:10:10.650Z,21.75
2018-06-18T03:10:51.158Z,21.74
2018-06-18T03:11:31.676Z,21.79
2018-06-18T03:12:12.199Z,21.74
2018-06-18T03:12:52.744Z,21.75
2018-06-18T03:13:33.218Z,21.74
2018-06-18T03:14:13.729Z,21.72
2018-06-18T03:14:54.267Z,21.69
2018-06-18T03:15:34.803Z,21.74
2018-06-18T03:16:15.325Z,21.67
2018-06-18T03:16:55.847Z,21.65
2018-06-18T03:17:36.362Z,21.54
2018-06-18T03:18:16.943Z,21.59
2018-06-18T03:18:57.475Z,21.68
2018-06-18T03:19:38.017Z,21.71
2018-06-18T03:20:18.535Z,21.72
2018-06-18T03:20:59.060Z,21.79
2018-06-18T03:21:39.574Z,21.74
2018-06-18T03:22:20.085Z,21.8
2018-06-18T03:23:00.615Z,21.75
2018-06-18T03:23:41.135Z,21.75
2018-06-18T03:24:21.666Z,21.83
2018-06-18T03:25:02.185Z,21.68
2018-06-18T03:25:42.704Z,21.75
2018-06-18T03:26:23.223Z,21.83
2018-06-18T03:27:03.738Z,21.75
2018-06-18T03:27:44.254Z,21.84
2018-06-18T03:28:24.770Z,21.91
2018-06-18T03:29:05.283Z,21.92
2018-06-18T03:29:45.798Z,21.98
2018-06-18T03:30:26.305Z,21.9
2018-06-18T03:31:06.827Z,21.9
2018-06-18T03:31:47.342Z,21.94
2018-06-18T03:32:27.858Z,21.88
2018-06-18T03:33:08.413Z,21.77
2018-06-18T03:33:48.937Z,21.8
2018-06-18T03:34:29.468Z,21.86
2018-06-18T03:35:09.984Z,21.84
2018-06-18T03:35:50.510Z,21.79
2018-06-18T03:36:31.058Z,21.86
2018-06-18T03:37:11.591Z,22
2018-06-18T03:37:52.073Z,21.98
2018-06-18T03:38:32.607Z,21.91
2018-06-18T03:39:13.121Z,21.94
2018-06-18T03:39:53.639Z,21.96
2018-06-18T03:40:34.152Z,21.94
2018-06-18T03:41:14.683Z,21.9
2018-06-18T03:41:55.194Z,21.83
2018-06-18T03:42:35.721Z,21.79
2018-06-18T03:43:16.238Z,21.75
2018-06-18T03:43:56.770Z,21.75
2018-06-18T03:44:37.295Z,21.8
2018-06-18T03:45:17.829Z,21.94
2018-06-18T03:45:58.359Z,21.91
2018-06-18T03:46:38.877Z,21.86
2018-06-18T03:47:19.393Z,21.94
2018-06-18T03:47:59.909Z,22.02
2018-06-18T03:48:40.427Z,21.92
2018-06-18T03:49:20.945Z,22.03
2018-06-18T03:50:01.479Z,21.9
2018-06-18T03:50:41.986Z,22.05
2018-06-18T03:51:22.506Z,22.06
2018-06-18T03:52:03.022Z,22.15
2018-06-18T03:52:43.547Z,22.17
2018-06-18T03:53:24.069Z,22.12
2018-06-18T03:54:04.582Z,22.2
2018-06-18T03:54:45.102Z,22.02
2018-06-18T03:55:25.618Z,21.99
2018-06-18T03:56:06.176Z,22.03
2018-06-18T03:56:46.649Z,22.1
2018-06-18T03:57:27.173Z,22.06
2018-06-18T03:58:07.697Z,22.06
2018-06-18T03:58:48.230Z,22.17
2018-06-18T03:59:28.757Z,22.09
2018-06-18T04:00:09.305Z,22.18
2018-06-18T04:00:49.808Z,22.18
2018-06-18T04:01:30.330Z,22.18
2018-06-18T04:02:10.856Z,22.3
2018-06-18T04:02:51.397Z,22.3
2018-06-18T04:03:32.007Z,22.36
2018-06-18T04:04:12.556Z,22.36
2018-06-18T04:04:53.079Z,22.52
2018-06-18T04:05:33.599Z,22.52
2018-06-18T04:06:14.100Z,22.7
2018-06-18T04:06:54.623Z,22.67
2018-06-18T04:07:35.134Z,22.7
2018-06-18T04:08:15.652Z,22.62
2018-06-18T04:08:56.168Z,22.85
2018-06-18T04:09:36.704Z,22.64
2018-06-18T04:10:17.251Z,22.6
2018-06-18T04:10:57.789Z,22.55
2018-06-18T04:11:38.303Z,22.51
2018-06-18T04:12:18.961Z,22.55
2018-06-18T04:12:59.407Z,22.52
2018-06-18T04:13:39.928Z,22.58
2018-06-18T04:14:20.453Z,22.51
2018-06-18T04:15:00.981Z,22.39
2018-06-18T04:15:41.492Z,22.46
2018-06-18T04:16:22.012Z,22.4
2018-06-18T04:17:02.521Z,22.35
2018-06-18T04:17:43.043Z,22.42
2018-06-18T04:18:23.574Z,22.4
2018-06-18T04:19:04.107Z,22.3
2018-06-18T04:19:44.629Z,22.3
2018-06-18T04:20:25.149Z,22.22
2018-06-18T04:21:05.671Z,22.1
2018-06-18T04:21:46.279Z,22.14
2018-06-18T04:22:26.702Z,22.14
2018-06-18T04:23:07.225Z,22.03
2018-06-18T04:23:48.469Z,22.18
2018-06-18T04:24:28.992Z,21.98
2018-06-18T04:25:09.520Z,22.07
2018-06-18T04:25:50.048Z,21.98
2018-06-18T04:26:30.561Z,22.06
2018-06-18T04:27:11.088Z,22
2018-06-18T04:27:51.607Z,22.09
2018-06-18T04:28:32.126Z,22.05
2018-06-18T04:29:12.649Z,22.1
2018-06-18T04:29:53.181Z,22.15
2018-06-18T04:30:33.716Z,22.15
2018-06-18T04:31:14.238Z,22.27
2018-06-18T04:31:54.764Z,22.31
2018-06-18T04:32:35.294Z,22.35
2018-06-18T04:33:15.827Z,22.27
2018-06-18T04:33:56.345Z,22.4
2018-06-18T04:34:36.860Z,22.33
2018-06-18T04:35:17.386Z,22.33
2018-06-18T04:35:57.912Z,22.35
2018-06-18T04:36:38.435Z,22.43
2018-06-18T04:37:18.955Z,22.42
2018-06-18T04:37:59.486Z,22.45
2018-06-18T04:38:40.005Z,22.54
2018-06-18T04:39:20.515Z,22.46
2018-06-18T04:40:01.038Z,22.57
2018-06-18T04:40:41.607Z,22.47
2018-06-18T04:41:22.118Z,22.52
2018-06-18T04:42:02.638Z,22.52
2018-06-18T04:42:43.155Z,22.4
2018-06-18T04:43:23.689Z,22.42
2018-06-18T04:44:04.215Z,22.54
2018-06-18T04:44:44.785Z,22.57
2018-06-18T04:45:25.255Z,22.43
2018-06-18T04:46:05.787Z,22.42
2018-06-18T04:46:46.304Z,22.54
2018-06-18T04:47:26.824Z,22.52
2018-06-18T04:48:07.346Z,22.55
2018-06-18T04:48:47.898Z,22.46
2018-06-18T04:49:28.421Z,22.57
2018-06-18T04:50:08.940Z,22.57
2018-06-18T04:50:49.458Z,22.52
2018-06-18T04:51:29.988Z,22.52
2018-06-18T04:52:10.502Z,22.54
2018-06-18T04:52:51.029Z,22.68
2018-06-18T04:53:31.564Z,22.7
2018-06-18T04:54:12.087Z,22.75
2018-06-18T04:54:52.606Z,22.8
2018-06-18T04:55:33.137Z,22.8
2018-06-18T04:56:13.655Z,22.8
2018-06-18T04:56:54.200Z,22.86
2018-06-18T04:57:34.727Z,23
2018-06-18T04:58:15.244Z,23.02
2018-06-18T04:58:55.771Z,23.1
2018-06-18T04:59:36.280Z,23.01
2018-06-18T05:00:16.817Z,22.97
2018-06-18T05:00:57.332Z,22.97
2018-06-18T05:01:37.863Z,22.95
2018-06-18T05:02:18.376Z,23.02
2018-06-18T05:02:58.912Z,22.97
2018-06-18T05:03:39.446Z,23.04
2018-06-18T05:04:19.953Z,22.92
2018-06-18T05:05:00.477Z,22.95
2018-06-18T05:05:41.012Z,22.92
2018-06-18T05:06:21.528Z,22.83
2018-06-18T05:07:02.029Z,22.88
2018-06-18T05:07:42.540Z,22.85
2018-06-18T05:08:23.068Z,22.8
2018-06-18T05:09:03.608Z,22.85
2018-06-18T05:09:44.128Z,22.83
2018-06-18T05:10:24.647Z,22.79
2018-06-18T05:11:05.204Z,22.85
2018-06-18T05:11:45.715Z,22.77
2018-06-18T05:12:26.303Z,22.88
2018-06-18T05:13:06.824Z,22.6
2018-06-18T05:13:47.337Z,22.73
2018-06-18T05:14:27.859Z,22.67
2018-06-18T05:15:08.379Z,22.61
2018-06-18T05:15:48.905Z,22.67
2018-06-18T05:16:29.430Z,22.76
2018-06-18T05:17:09.959Z,22.79
2018-06-18T05:17:50.473Z,22.75
2018-06-18T05:18:30.992Z,22.76
2018-06-18T05:19:11.503Z,22.79
2018-06-18T05:19:52.026Z,22.88
2018-06-18T05:20:32.551Z,22.82
2018-06-18T05:21:13.069Z,22.95
2018-06-18T05:21:53.599Z,23
2018-06-18T05:22:34.139Z,23.12
2018-06-18T05:23:14.652Z,23.13
2018-06-18T05:23:55.179Z,23.02
2018-06-18T05:24:35.705Z,23.01
2018-06-18T05:25:16.254Z,22.95
2018-06-18T05:25:56.784Z,22.85
2018-06-18T05:26:37.309Z,22.88
2018-06-18T05:27:17.836Z,23.01
2018-06-18T05:27:58.361Z,22.98
2018-06-18T05:28:38.877Z,23.15
2018-06-18T05:29:19.389Z,23.1
2018-06-18T05:29:59.906Z,23.22
2018-06-18T05:30:40.457Z,23.36
2018-06-18T05:31:20.946Z,23.28
2018-06-18T05:32:01.468Z,23.31
2018-06-18T05:32:42.089Z,23.23
2018-06-18T05:33:22.620Z,23.1
2018-06-18T05:34:03.127Z,23.13
2018-06-18T05:34:43.650Z,23.05
2018-06-18T05:35:24.216Z,23.2
2018-06-18T05:36:04.717Z,23.23
2018-06-18T05:36:45.243Z,23.09
2018-06-18T05:37:25.769Z,23.25
2018-06-18T05:38:06.294Z,23.36
2018-06-18T05:38:46.836Z,23.42
2018-06-18T05:39:27.332Z,23.48
2018-06-18T05:40:07.861Z,23.39
2018-06-18T05:40:48.383Z,23.42
2018-06-18T05:41:28.911Z,23.58
2018-06-18T05:42:09.436Z,23.61
2018-06-18T05:42:49.948Z,23.58
2018-06-18T05:43:30.540Z,23.58
2018-06-18T05:44:11.011Z,23.68
2018-06-18T05:44:51.549Z,23.54
2018-06-18T05:45:32.057Z,23.63
2018-06-18T05:46:12.582Z,23.57
2018-06-18T05:46:53.124Z,23.51
2018-06-18T05:47:33.647Z,23.72
2018-06-18T05:48:14.175Z,23.75
2018-06-18T05:48:54.719Z,23.8
2018-06-18T05:49:35.247Z,23.76
2018-06-18T05:50:15.757Z,23.73
2018-06-18T05:50:56.293Z,23.83
2018-06-18T05:51:36.825Z,23.88
2018-06-18T05:52:17.356Z,23.88
2018-06-18T05:52:57.887Z,23.87
2018-06-18T05:53:38.422Z,24.02
2018-06-18T05:54:18.946Z,24.08
2018-06-18T05:54:59.463Z,24.16
2018-06-18T05:55:39.991Z,24.09
2018-06-18T05:56:20.501Z,24.05
2018-06-18T05:57:01.025Z,23.95
2018-06-18T05:57:41.609Z,24
2018-06-18T05:58:22.105Z,24.08
2018-06-18T05:59:02.586Z,24.18
2018-06-18T05:59:43.164Z,24.12
2018-06-18T06:00:23.665Z,24.1
2018-06-18T06:01:04.186Z,24.27
2018-06-18T06:01:44.713Z,24.35
2018-06-18T06:02:25.239Z,24.31
2018-06-18T06:03:05.776Z,24.13
2018-06-18T06:03:46.290Z,24.24
2018-06-18T06:04:26.838Z,24.37
2018-06-18T06:05:07.371Z,24.35
2018-06-18T06:05:47.941Z,24.35
2018-06-18T06:06:28.474Z,24.49
2018-06-18T06:07:08.988Z,24.65
2018-06-18T06:07:49.510Z,24.53
2018-06-18T06:08:30.035Z,24.69
2018-06-18T06:09:10.561Z,24.8
2018-06-18T06:09:51.072Z,24.78
2018-06-18T06:10:31.593Z,24.88
2018-06-18T06:11:12.125Z,24.81
2018-06-18T06:11:52.639Z,24.91
2018-06-18T06:12:33.175Z,24.91
2018-06-18T06:13:13.687Z,24.93
2018-06-18T06:13:54.214Z,24.98
2018-06-18T06:14:34.742Z,25.1
2018-06-18T06:15:15.260Z,25.32
2018-06-18T06:15:55.807Z,25.57
2018-06-18T06:16:36.320Z,25.73
2018-06-18T06:17:16.860Z,25.88
2018-06-18T06:17:57.396Z,26.01
2018-06-18T06:18:37.936Z,26.15
2018-06-18T06:19:18.465Z,26.17
2018-06-18T06:19:58.997Z,26.2
2018-06-18T06:20:39.506Z,26.18
2018-06-18T06:21:20.028Z,26.15
2018-06-18T06:22:00.546Z,26.01
2018-06-18T06:22:41.064Z,26.02
2018-06-18T06:23:21.606Z,25.88
2018-06-18T06:24:02.134Z,25.69
2018-06-18T06:24:42.655Z,25.73
2018-06-18T06:25:23.179Z,25.73
2018-06-18T06:26:03.761Z,25.76
2018-06-18T06:26:44.292Z,25.83
2018-06-18T06:27:24.802Z,25.75
2018-06-18T06:28:05.334Z,25.85
2018-06-18T06:28:45.856Z,25.83
2018-06-18T06:29:26.375Z,25.9
2018-06-18T06:30:06.889Z,25.77
2018-06-18T06:30:47.418Z,25.75
2018-06-18T06:31:27.941Z,25.94
2018-06-18T06:32:08.496Z,25.91
2018-06-18T06:32:49.024Z,25.8
2018-06-18T06:33:29.570Z,25.85
2018-06-18T06:34:10.241Z,25.83
2018-06-18T06:34:50.634Z,26.06
2018-06-18T06:35:31.179Z,26.02
2018-06-18T06:36:11.711Z,25.8
2018-06-18T06:36:52.242Z,25.61
2018-06-18T06:37:32.819Z,25.55
2018-06-18T06:38:13.297Z,25.35
2018-06-18T06:38:53.826Z,25.39
2018-06-18T06:39:34.342Z,25.35
2018-06-18T06:40:14.857Z,25.35
2018-06-18T06:40:55.374Z,25.36
2018-06-18T06:41:35.916Z,25.47
2018-06-18T06:42:16.442Z,25.61
2018-06-18T06:42:56.977Z,25.8
2018-06-18T06:43:37.503Z,25.79
2018-06-18T06:44:18.025Z,25.85
2018-06-18T06:44:58.571Z,25.88
2018-06-18T06:45:39.092Z,25.98
2018-06-18T06:46:19.628Z,25.92
2018-06-18T06:47:00.157Z,25.88
2018-06-18T06:47:40.674Z,25.92
2018-06-18T06:48:21.201Z,25.88
2018-06-18T06:49:01.726Z,25.77
2018-06-18T06:49:42.254Z,25.87
2018-06-18T06:50:22.781Z,25.73
2018-06-18T06:51:03.304Z,25.79
2018-06-18T06:51:43.843Z,25.65
2018-06-18T06:52:24.363Z,25.75
2018-06-18T06:53:04.878Z,25.91
2018-06-18T06:53:45.405Z,25.77
2018-06-18T06:54:25.918Z,25.65
2018-06-18T06:55:06.439Z,25.6
2018-06-18T06:55:46.973Z,25.73
2018-06-18T06:56:27.498Z,25.85
2018-06-18T06:57:08.009Z,25.97
2018-06-18T06:57:48.528Z,26.05
2018-06-18T06:58:29.052Z,26.01
2018-06-18T06:59:09.615Z,25.91
2018-06-18T06:59:50.134Z,25.91
2018-06-18T07:00:30.638Z,25.85
2018-06-18T07:01:11.171Z,26.06
2018-06-18T07:01:51.694Z,26.07
2018-06-18T07:02:32.215Z,26.17
2018-06-18T07:03:12.730Z,26.18
2018-06-18T07:03:53.242Z,26.1
2018-06-18T07:04:33.775Z,26.02
2018-06-18T07:05:14.293Z,26.05
2018-06-18T07:05:54.817Z,26.02
2018-06-18T07:06:35.334Z,26.07
2018-06-18T07:07:15.884Z,26.02
2018-06-18T07:07:56.457Z,26.05
2018-06-18T07:08:36.938Z,26.02
2018-06-18T07:09:17.467Z,25.99
2018-06-18T07:09:58.007Z,26.05
2018-06-18T07:10:38.542Z,26.17
2018-06-18T07:11:19.067Z,26.17
2018-06-18T07:11:59.589Z,26.28
2018-06-18T07:12:40.118Z,26.47
2018-06-18T07:13:20.693Z,26.37
2018-06-18T07:14:01.138Z,26.39
2018-06-18T07:14:41.655Z,26.33
2018-06-18T07:15:22.170Z,26.29
2018-06-18T07:16:02.698Z,26.45
2018-06-18T07:16:43.215Z,26.58
2018-06-18T07:17:23.729Z,26.55
2018-06-18T07:18:04.257Z,26.55
2018-06-18T07:18:44.802Z,26.6
2018-06-18T07:19:25.322Z,26.5
2018-06-18T07:20:05.853Z,26.58
2018-06-18T07:20:46.370Z,26.58
2018-06-18T07:21:26.897Z,26.7
2018-06-18T07:22:07.408Z,26.7
2018-06-18T07:22:47.939Z,26.69
2018-06-18T07:23:28.460Z,26.84
2018-06-18T07:24:08.971Z,26.84
2018-06-18T07:24:49.503Z,26.87
2018-06-18T07:25:30.034Z,26.81
2018-06-18T07:26:10.594Z,26.8
2018-06-18T07:26:51.076Z,26.85
2018-06-18T07:27:31.596Z,26.81
2018-06-18T07:28:12.130Z,26.81
2018-06-18T07:28:52.646Z,26.88
2018-06-18T07:29:33.171Z,26.89
2018-06-18T07:30:13.852Z,26.76
2018-06-18T07:30:54.278Z,26.66
2018-06-18T07:31:34.739Z,26.63
2018-06-18T07:32:15.256Z,26.7
2018-06-18T07:32:55.790Z,26.91
2018-06-18T07:33:36.305Z,26.91
2018-06-18T07:34:16.838Z,26.94
2018-06-18T07:34:57.363Z,26.89
2018-06-18T07:35:37.894Z,26.73
2018-06-18T07:36:18.415Z,26.89
2018-06-18T07:36:58.963Z,26.75
2018-06-18T07:37:39.498Z,26.91
2018-06-18T07:38:20.047Z,26.92
2018-06-18T07:39:00.576Z,27.06
2018-06-18T07:39:41.085Z,27.06
2018-06-18T07:40:21.621Z,27.12
2018-06-18T07:41:02.147Z,26.91
2018-06-18T07:41:42.693Z,26.69
2018-06-18T07:42:23.217Z,26.66
2018-06-18T07:43:03.747Z,26.63
2018-06-18T07:43:44.271Z,26.51
2018-06-18T07:44:24.798Z,26.55
2018-06-18T07:45:05.324Z,26.5
2018-06-18T07:45:45.841Z,26.55
2018-06-18T07:46:26.359Z,26.63
2018-06-18T07:47:06.881Z,26.58
2018-06-18T07:47:47.398Z,26.57
2018-06-18T07:48:27.944Z,26.6
2018-06-18T07:49:08.492Z,26.52
2018-06-18T07:49:49.023Z,26.36
2018-06-18T07:50:29.541Z,26.29
2018-06-18T07:51:10.053Z,26.3
2018-06-18T07:51:50.715Z,26.51
2018-06-18T07:52:31.106Z,26.69
2018-06-18T07:53:11.631Z,26.77
2018-06-18T07:53:52.152Z,26.87
2018-06-18T07:54:32.675Z,27.07
2018-06-18T07:55:13.211Z,27.07
2018-06-18T07:55:53.741Z,27.06
2018-06-18T07:56:34.283Z,27.03
2018-06-18T07:57:14.808Z,27.09
2018-06-18T07:57:55.335Z,27.06
2018-06-18T07:58:35.859Z,27.03
2018-06-18T07:59:16.375Z,27.07
2018-06-18T07:59:56.928Z,26.82
2018-06-18T08:00:37.448Z,27.09
2018-06-18T08:01:17.970Z,27.07
2018-06-18T08:01:58.504Z,27.1
2018-06-18T08:02:39.045Z,27.19
2018-06-18T08:03:19.562Z,27.21
2018-06-18T08:04:00.101Z,27.13
2018-06-18T08:04:40.632Z,27.03
2018-06-18T08:05:21.166Z,26.95
2018-06-18T08:06:01.693Z,27.09
2018-06-18T08:06:42.227Z,27.06
2018-06-18T08:07:22.744Z,26.89
2018-06-18T08:08:03.273Z,26.73
2018-06-18T08:08:43.812Z,26.67
2018-06-18T08:09:24.362Z,26.52
2018-06-18T08:10:04.887Z,26.55
2018-06-18T08:10:45.417Z,26.48
2018-06-18T08:11:25.971Z,26.4
2018-06-18T08:12:06.494Z,26.33
2018-06-18T08:12:47.021Z,26.39
2018-06-18T08:13:27.547Z,26.4
2018-06-18T08:14:08.068Z,26.35
2018-06-18T08:14:48.600Z,26.43
2018-06-18T08:15:29.140Z,26.33
2018-06-18T08:16:09.669Z,26.44
2018-06-18T08:16:50.232Z,26.47
2018-06-18T08:17:30.752Z,26.6
2018-06-18T08:18:11.277Z,26.52
2018-06-18T08:18:51.802Z,26.55
2018-06-18T08:19:32.318Z,26.69
2018-06-18T08:20:12.849Z,26.91
2018-06-18T08:20:53.414Z,26.72
2018-06-18T08:21:33.949Z,26.63
2018-06-18T08:22:14.460Z,26.75
2018-06-18T08:22:54.986Z,26.66
2018-06-18T08:23:35.541Z,26.58
2018-06-18T08:24:16.072Z,26.52
2018-06-18T08:24:56.599Z,26.44
2018-06-18T08:25:37.133Z,26.29
2018-06-18T08:26:17.663Z,26.37
2018-06-18T08:26:58.246Z,26.4
2018-06-18T08:27:38.738Z,26.37
2018-06-18T08:28:19.250Z,26.4
2018-06-18T08:28:59.791Z,26.36
2018-06-18T08:29:40.317Z,26.36
2018-06-18T08:30:20.851Z,26.54
2018-06-18T08:31:01.367Z,26.57
2018-06-18T08:31:41.881Z,26.5
2018-06-18T08:32:22.406Z,26.32
2018-06-18T08:33:02.921Z,26.37
2018-06-18T08:33:43.447Z,26.45
2018-06-18T08:34:23.970Z,26.43
2018-06-18T08:35:04.500Z,26.47
2018-06-18T08:35:45.040Z,26.47
2018-06-18T08:36:25.576Z,26.52
2018-06-18T08:37:06.109Z,26.52
2018-06-18T08:37:46.628Z,26.48
2018-06-18T08:38:27.156Z,26.6
2018-06-18T08:39:07.669Z,26.57
2018-06-18T08:39:48.203Z,26.52
2018-06-18T08:40:28.737Z,26.57
2018-06-18T08:41:09.262Z,26.66
2018-06-18T08:41:49.807Z,26.55
2018-06-18T08:42:30.370Z,26.55
2018-06-18T08:43:10.888Z,26.54
2018-06-18T08:43:51.406Z,26.4
2018-06-18T08:44:31.928Z,26.4
2018-06-18T08:45:12.469Z,26.5
2018-06-18T08:45:52.974Z,26.5